Time;durP1;ratioP1;P1;durP2;ratioP2;P2;SDS_P1;SDS_P2;PMS_P1;PMS_P2;Temp;Humidity;BMP_temperature;BMP_pressure;BME280_temperature;BME280_humidity;BME280_pressure;Samples;Min_cycle;Max_cycle;Signal;HPM_P1;HPM_P2
2023/02/19 00:02:14;;;;;;;88.67;48.87;;;5.70;93.70;;;;;;4943084;28;20375;-80
2023/02/19 00:04:41;;;;;;;87.33;49.20;;;5.60;93.30;;;;;;4945476;28;20214;-80
2023/02/19 00:07:08;;;;;;;77.90;45.00;;;5.60;93.30;;;;;;4942620;28;20217;-81
2023/02/19 00:09:36;;;;;;;107.77;56.73;;;5.60;93.30;;;;;;4928311;28;20718;-80
2023/02/19 00:12:03;;;;;;;114.17;55.87;;;5.60;93.40;;;;;;4949496;28;20233;-80
2023/02/19 00:14:33;;;;;;;87.27;49.67;;;5.60;93.20;;;;;;4959043;28;20205;-80
2023/02/19 00:17:01;;;;;;;73.13;39.97;;;5.50;92.80;;;;;;4948706;28;20233;-80
2023/02/19 00:19:28;;;;;;;66.07;36.77;;;5.40;92.70;;;;;;4960361;28;20201;-80
2023/02/19 00:21:56;;;;;;;67.17;38.67;;;5.40;92.70;;;;;;4961762;28;20205;-80
2023/02/19 00:24:23;;;;;;;70.03;39.30;;;5.40;92.80;;;;;;4952437;28;20202;-80
2023/02/19 00:26:52;;;;;;;95.13;38.63;;;5.30;92.80;;;;;;4941277;28;20230;-81
2023/02/19 00:29:21;;;;;;;86.63;40.07;;;5.30;92.80;;;;;;4950961;28;20202;-80
2023/02/19 00:31:52;;;;;;;222.33;46.47;;;5.30;92.90;;;;;;4951306;28;20205;-80
2023/02/19 00:34:23;;;;;;;74.23;42.23;;;5.30;93.00;;;;;;4955732;28;20558;-80
2023/02/19 00:36:50;;;;;;;109.77;54.80;;;5.20;92.90;;;;;;4928582;28;20206;-80
2023/02/19 00:39:21;;;;;;;72.27;43.60;;;5.10;92.80;;;;;;4956379;28;20216;-82
2023/02/19 00:41:48;;;;;;;72.77;46.43;;;5.10;92.60;;;;;;4937295;29;20221;-80
2023/02/19 00:44:15;;;;;;;74.43;41.33;;;5.10;92.90;;;;;;4934232;29;20291;-79
2023/02/19 00:46:46;;;;;;;55.90;38.33;;;5.00;92.40;;;;;;4958829;28;20221;-81
2023/02/19 00:49:19;;;;;;;57.47;39.23;;;5.00;92.30;;;;;;4950859;28;20201;-79
2023/02/19 00:51:47;;;;;;;46.80;32.13;;;5.00;92.30;;;;;;4952717;28;20201;-79
2023/02/19 00:54:16;;;;;;;50.90;33.70;;;4.90;92.40;;;;;;4963361;28;20198;-79
2023/02/19 00:56:44;;;;;;;57.27;35.00;;;4.90;92.50;;;;;;4945392;28;20221;-81
2023/02/19 00:59:12;;;;;;;62.73;35.63;;;5.00;92.60;;;;;;4952850;28;20206;-80
2023/02/19 01:01:40;;;;;;;103.07;36.13;;;5.00;92.70;;;;;;4938586;29;20214;-80
2023/02/19 01:04:07;;;;;;;148.57;37.77;;;5.00;92.80;;;;;;4938412;29;20250;-80
2023/02/19 01:06:36;;;;;;;180.70;39.30;;;5.00;92.80;;;;;;4968731;28;20642;-80
2023/02/19 01:09:04;;;;;;;86.57;44.07;;;5.00;92.90;;;;;;4950696;28;20200;-80
2023/02/19 01:11:31;;;;;;;132.30;40.73;;;4.90;92.90;;;;;;4938166;28;20202;-80
2023/02/19 01:14:00;;;;;;;197.37;44.80;;;4.90;92.90;;;;;;4958284;28;20270;-80
2023/02/19 01:16:28;;;;;;;118.67;45.10;;;4.90;92.90;;;;;;4940371;29;20266;-79
2023/02/19 01:18:56;;;;;;;67.07;38.73;;;4.90;93.00;;;;;;4940511;28;20205;-79
2023/02/19 01:21:26;;;;;;;147.03;35.37;;;4.80;93.10;;;;;;4938620;29;20207;-79
2023/02/19 01:23:54;;;;;;;157.23;38.27;;;4.90;93.20;;;;;;4956411;28;20206;-79
2023/02/19 01:26:30;;;;;;;107.27;34.03;;;4.90;93.20;;;;;;4934796;29;20228;-81
2023/02/19 01:28:59;;;;;;;152.67;38.37;;;4.80;93.30;;;;;;4942239;28;20206;-80
2023/02/19 01:31:27;;;;;;;118.53;36.53;;;4.80;93.40;;;;;;4955682;28;20206;-79
2023/02/19 01:33:58;;;;;;;228.83;40.77;;;4.80;93.40;;;;;;4944284;28;20205;-80
2023/02/19 01:36:26;;;;;;;129.43;36.43;;;4.80;93.50;;;;;;4939783;28;20304;-80
2023/02/19 01:38:54;;;;;;;158.33;41.80;;;4.80;93.60;;;;;;4948373;28;20217;-80
2023/02/19 01:41:24;;;;;;;190.40;46.80;;;4.80;93.80;;;;;;4934941;29;20205;-80
2023/02/19 01:44:06;;;;;;;203.57;42.17;;;4.80;93.90;;;;;;4960605;28;20260;-80
2023/02/19 01:46:37;;;;;;;202.57;41.27;;;4.80;94.00;;;;;;4954537;28;20206;-79
2023/02/19 01:49:14;;;;;;;190.33;40.57;;;4.80;94.00;;;;;;4926624;29;20209;-80
2023/02/19 01:51:51;;;;;;;157.57;37.77;;;4.80;94.10;;;;;;4933784;29;20625;-80
2023/02/19 01:54:23;;;;;;;191.50;40.50;;;4.80;94.10;;;;;;4952727;28;20209;-80
2023/02/19 01:56:51;;;;;;;117.60;32.20;;;4.70;94.20;;;;;;4953010;28;20209;-80
2023/02/19 01:59:18;;;;;;;169.40;35.20;;;4.70;94.20;;;;;;4934773;29;20209;-79
2023/02/19 02:01:47;;;;;;;110.47;33.73;;;4.70;94.30;;;;;;4950296;28;20244;-81
2023/02/19 02:04:15;;;;;;;93.67;31.87;;;4.60;94.10;;;;;;4952152;28;20230;-79
2023/02/19 02:07:01;;;;;;;151.17;32.93;;;4.60;94.10;;;;;;4953730;28;20225;-79
2023/02/19 02:12:16;;;;;;;65.97;31.63;;;4.50;93.80;;;;;;4949196;28;20217;-80
2023/02/19 02:14:46;;;;;;;120.13;31.43;;;4.30;94.00;;;;;;4939926;29;20197;-79
2023/02/19 02:17:52;;;;;;;96.70;29.13;;;4.30;94.10;;;;;;4951835;28;20221;-80
2023/02/19 02:21:02;;;;;;;72.63;28.20;;;4.20;94.00;;;;;;4903115;29;20228;-80
2023/02/19 02:24:17;;;;;;;49.67;29.43;;;4.20;93.90;;;;;;4887070;29;20653;-80
2023/02/19 02:26:58;;;;;;;38.10;28.93;;;4.10;93.80;;;;;;4901987;29;20230;-80
2023/02/19 02:29:28;;;;;;;48.37;28.03;;;4.00;93.70;;;;;;4895780;29;20231;-80
2023/02/19 02:32:02;;;;;;;41.43;27.77;;;4.00;93.80;;;;;;4918400;29;20225;-79
2023/02/19 02:34:40;;;;;;;44.47;27.97;;;4.00;93.80;;;;;;4944813;28;20549;-79
2023/02/19 02:37:10;;;;;;;49.40;31.07;;;3.90;93.70;;;;;;4944624;28;20256;-79
2023/02/19 02:39:39;;;;;;;164.57;29.90;;;3.90;93.60;;;;;;4940096;28;20239;-80
2023/02/19 02:45:36;;;;;;;45.03;31.20;;;3.80;93.40;;;;;;4950714;28;20209;-80
2023/02/19 02:48:14;;;;;;;156.80;27.60;;;3.80;93.50;;;;;;4951239;28;20204;-80
2023/02/19 02:50:46;;;;;;;71.27;27.90;;;3.70;93.30;;;;;;4946194;28;20580;-79
2023/02/19 02:56:24;;;;;;;41.60;29.50;;;3.60;93.10;;;;;;4943879;29;20214;-80
2023/02/19 02:58:53;;;;;;;42.53;28.80;;;3.60;93.20;;;;;;4949021;28;20253;-80
2023/02/19 03:04:32;;;;;;;40.53;28.97;;;3.50;93.50;;;;;;4940298;28;20218;-80
2023/02/19 03:07:06;;;;;;;133.43;31.63;;;3.50;93.50;;;;;;4945915;28;20229;-80
2023/02/19 03:09:41;;;;;;;42.87;29.90;;;3.50;93.50;;;;;;4924254;28;20237;-80
2023/02/19 03:20:54;;;;;;;44.27;30.57;;;3.40;93.40;;;;;;4943395;28;20218;-80
2023/02/19 03:26:19;;;;;;;51.00;34.43;;;3.40;93.60;;;;;;4926230;29;20242;-80
2023/02/19 03:31:43;;;;;;;50.20;33.27;;;3.40;93.50;;;;;;4940480;28;20304;-80
2023/02/19 03:34:17;;;;;;;48.80;31.70;;;3.40;93.50;;;;;;4954311;28;20201;-79
2023/02/19 03:36:54;;;;;;;44.57;30.73;;;3.30;93.70;;;;;;4948888;28;20212;-79
2023/02/19 03:39:23;;;;;;;42.47;29.87;;;3.40;93.40;;;;;;4947518;28;20644;-79
2023/02/19 03:41:53;;;;;;;43.20;28.47;;;3.30;93.30;;;;;;4926572;29;20211;-79
2023/02/19 03:44:38;;;;;;;43.20;29.57;;;3.30;93.30;;;;;;4942525;28;20297;-79
2023/02/19 03:47:30;;;;;;;39.53;28.43;;;3.30;93.20;;;;;;4918140;29;20230;-79
2023/02/19 03:50:18;;;;;;;40.13;28.23;;;3.30;93.20;;;;;;4944214;28;20214;-79
2023/02/19 03:53:03;;;;;;;56.60;30.10;;;3.30;93.20;;;;;;4943734;28;20666;-79
2023/02/19 03:55:59;;;;;;;42.67;29.47;;;3.30;93.10;;;;;;4951872;28;20227;-79
2023/02/19 03:58:50;;;;;;;44.27;30.30;;;3.20;93.10;;;;;;4923533;29;20280;-79
2023/02/19 04:01:42;;;;;;;52.10;34.43;;;3.20;93.20;;;;;;4942896;28;20217;-79
2023/02/19 04:04:26;;;;;;;45.73;29.63;;;3.20;93.10;;;;;;4911628;29;20213;-79
2023/02/19 04:06:55;;;;;;;43.50;30.30;;;3.20;93.00;;;;;;4953466;28;20225;-79
2023/02/19 04:09:33;;;;;;;40.50;22.53;;;3.20;93.00;;;;;;4937965;29;20238;-79
2023/02/19 04:12:08;;;;;;;36.37;26.73;;;3.20;92.90;;;;;;4964486;28;20205;-79
2023/02/19 04:14:40;;;;;;;32.97;23.93;;;3.10;92.80;;;;;;4951684;28;20224;-79
2023/02/19 04:17:18;;;;;;;35.17;25.50;;;3.10;92.90;;;;;;4959638;28;20263;-79
2023/02/19 04:19:50;;;;;;;29.13;21.70;;;3.10;93.00;;;;;;4940739;28;20219;-79
2023/02/19 04:22:17;;;;;;;32.33;24.80;;;3.10;93.10;;;;;;4953227;28;20312;-79
2023/02/19 04:24:52;;;;;;;33.13;25.00;;;3.10;93.20;;;;;;4944421;28;20252;-79
2023/02/19 04:27:20;;;;;;;32.93;24.33;;;3.10;93.20;;;;;;4940547;28;20240;-79
2023/02/19 04:29:48;;;;;;;32.63;24.80;;;3.10;93.10;;;;;;4934364;29;20219;-79
2023/02/19 04:32:15;;;;;;;33.70;24.50;;;3.10;93.00;;;;;;4937785;29;20272;-79
2023/02/19 04:34:45;;;;;;;34.77;25.03;;;3.10;93.00;;;;;;4925390;29;20602;-79
2023/02/19 04:37:12;;;;;;;36.07;24.63;;;3.10;93.00;;;;;;4949953;28;20211;-79
2023/02/19 04:39:39;;;;;;;36.70;25.53;;;3.10;93.10;;;;;;4956157;28;20208;-79
2023/02/19 04:42:09;;;;;;;39.37;26.13;;;3.10;93.10;;;;;;4956237;28;20245;-79
2023/02/19 04:44:36;;;;;;;32.00;24.27;;;3.00;93.10;;;;;;4947785;28;20211;-80
2023/02/19 04:47:03;;;;;;;34.73;25.07;;;3.00;93.20;;;;;;4921539;29;20682;-79
2023/02/19 04:49:31;;;;;;;35.70;25.63;;;3.00;93.30;;;;;;4944241;28;20292;-80
2023/02/19 04:51:59;;;;;;;36.50;26.17;;;3.10;93.30;;;;;;4935540;29;20216;-79
2023/02/19 04:54:26;;;;;;;38.93;27.83;;;3.10;93.30;;;;;;4934722;29;20206;-79
2023/02/19 04:56:53;;;;;;;40.70;27.93;;;3.10;93.20;;;;;;4940015;28;20237;-79
2023/02/19 04:59:20;;;;;;;54.67;31.07;;;3.10;93.20;;;;;;4951547;28;20211;-80
2023/02/19 05:01:47;;;;;;;107.30;35.17;;;3.10;93.10;;;;;;4931863;29;20248;-78
2023/02/19 05:04:15;;;;;;;66.00;34.30;;;3.10;93.00;;;;;;4964169;28;20208;-79
2023/02/19 05:06:42;;;;;;;73.50;34.80;;;3.00;92.90;;;;;;4942537;28;20225;-79
2023/02/19 05:09:09;;;;;;;93.13;36.83;;;3.00;93.10;;;;;;4952702;28;20201;-79
2023/02/19 05:11:38;;;;;;;107.43;35.57;;;3.00;93.30;;;;;;4948822;28;20202;-80
2023/02/19 05:14:06;;;;;;;94.13;32.20;;;3.10;93.60;;;;;;4951857;28;20209;-79
2023/02/19 05:16:34;;;;;;;111.80;36.57;;;3.10;93.70;;;;;;4925726;29;20205;-79
2023/02/19 05:19:01;;;;;;;134.03;35.23;;;3.10;93.90;;;;;;4942764;28;20256;-78
2023/02/19 05:21:29;;;;;;;100.07;33.43;;;3.10;94.00;;;;;;4927617;29;20275;-78
2023/02/19 05:23:56;;;;;;;219.20;38.37;;;3.10;94.10;;;;;;4950532;28;20212;-79
2023/02/19 05:26:24;;;;;;;113.53;37.40;;;3.10;94.20;;;;;;4948714;28;20220;-78
2023/02/19 05:28:52;;;;;;;116.33;34.43;;;3.10;94.40;;;;;;4953988;28;20208;-78
2023/02/19 05:31:20;;;;;;;95.87;35.53;;;3.00;94.40;;;;;;4963309;28;20295;-78
2023/02/19 05:33:50;;;;;;;64.97;35.70;;;3.10;94.50;;;;;;4931532;29;20232;-79
2023/02/19 05:36:19;;;;;;;59.30;36.73;;;3.00;94.50;;;;;;4954667;28;20197;-78
2023/02/19 05:38:50;;;;;;;65.53;37.03;;;3.00;94.60;;;;;;4956877;28;20212;-78
2023/02/19 05:41:21;;;;;;;57.23;33.97;;;3.10;94.60;;;;;;4947972;28;20204;-79
2023/02/19 05:43:48;;;;;;;55.20;32.63;;;3.00;94.50;;;;;;4954678;28;20223;-79
2023/02/19 05:46:18;;;;;;;55.63;33.93;;;3.00;94.40;;;;;;4948909;28;20212;-79
2023/02/19 05:48:47;;;;;;;59.03;33.83;;;3.00;94.40;;;;;;4942560;29;20200;-78
2023/02/19 05:51:18;;;;;;;56.57;33.77;;;2.90;94.20;;;;;;4949948;28;20210;-79
2023/02/19 05:53:46;;;;;;;54.60;34.67;;;2.90;94.20;;;;;;4956301;28;20607;-78
2023/02/19 05:56:33;;;;;;;63.77;36.83;;;2.80;94.20;;;;;;4937469;29;20219;-80
2023/02/19 05:59:03;;;;;;;52.63;32.37;;;2.90;94.20;;;;;;4936643;29;20308;-78
2023/02/19 06:01:30;;;;;;;59.57;33.80;;;2.80;94.10;;;;;;4942884;28;20196;-82
2023/02/19 06:03:57;;;;;;;79.07;36.27;;;2.80;94.10;;;;;;4955996;28;20578;-78
2023/02/19 06:06:25;;;;;;;103.57;34.03;;;2.80;94.20;;;;;;4945891;28;20212;-79
2023/02/19 06:08:53;;;;;;;89.70;34.20;;;2.70;94.10;;;;;;4949809;28;20267;-79
2023/02/19 06:11:20;;;;;;;82.50;36.90;;;2.80;94.20;;;;;;4946201;28;20249;-79
2023/02/19 06:13:49;;;;;;;68.87;34.60;;;2.80;94.30;;;;;;4940951;28;20217;-79
2023/02/19 06:16:17;;;;;;;58.27;33.07;;;2.70;94.30;;;;;;4943677;28;20197;-79
2023/02/19 06:18:45;;;;;;;52.03;33.00;;;2.70;94.30;;;;;;4947940;28;20596;-79
2023/02/19 06:21:13;;;;;;;58.53;33.37;;;2.70;94.30;;;;;;4946442;28;20300;-79
2023/02/19 06:23:42;;;;;;;53.63;33.40;;;2.80;94.30;;;;;;4942870;28;20212;-80
2023/02/19 06:26:22;;;;;;;59.40;34.03;;;2.70;94.20;;;;;;4933236;29;20208;-79
2023/02/19 06:28:51;;;;;;;108.33;31.67;;;2.70;94.10;;;;;;4926920;29;20311;-78
2023/02/19 06:31:20;;;;;;;50.43;31.53;;;2.70;93.90;;;;;;4945275;28;20260;-78
2023/02/19 06:33:49;;;;;;;61.30;33.40;;;2.70;93.70;;;;;;4940983;28;20216;-79
2023/02/19 06:36:19;;;;;;;55.77;33.40;;;2.70;93.70;;;;;;4948055;28;20244;-79
2023/02/19 06:38:46;;;;;;;44.97;29.90;;;2.60;93.60;;;;;;4947673;28;20555;-79
2023/02/19 06:41:15;;;;;;;54.73;32.77;;;2.60;93.60;;;;;;4938387;29;20224;-79
2023/02/19 06:43:42;;;;;;;47.20;30.47;;;2.70;93.70;;;;;;4953595;28;20208;-79
2023/02/19 06:46:11;;;;;;;45.90;31.27;;;2.70;93.60;;;;;;4944938;28;20201;-78
2023/02/19 06:48:41;;;;;;;44.57;29.90;;;2.70;93.60;;;;;;4951199;28;20245;-78
2023/02/19 06:51:14;;;;;;;44.20;30.63;;;2.80;93.60;;;;;;4952836;28;20288;-77
2023/02/19 06:53:41;;;;;;;41.77;29.67;;;2.80;93.40;;;;;;4944390;29;20216;-78
2023/02/19 06:56:26;;;;;;;46.17;29.90;;;2.80;93.40;;;;;;4939934;28;20201;-79
2023/02/19 06:58:56;;;;;;;44.43;29.87;;;2.80;93.60;;;;;;4948378;28;20240;-78
2023/02/19 07:01:23;;;;;;;43.40;30.97;;;2.90;93.70;;;;;;4941172;28;20212;-80
2023/02/19 07:03:51;;;;;;;40.67;28.03;;;3.00;93.80;;;;;;4947417;28;20215;-79
2023/02/19 07:06:20;;;;;;;40.10;28.90;;;3.20;93.90;;;;;;4947178;28;20201;-79
2023/02/19 07:08:48;;;;;;;44.90;29.73;;;3.30;94.00;;;;;;4942644;28;20218;-80
2023/02/19 07:11:18;;;;;;;43.13;29.20;;;3.60;94.00;;;;;;4950246;28;20252;-79
2023/02/19 07:13:45;;;;;;;43.30;29.87;;;3.80;93.80;;;;;;4912074;29;20207;-79
2023/02/19 07:16:14;;;;;;;48.90;30.47;;;4.10;93.50;;;;;;4918093;29;20719;-79
2023/02/19 07:18:41;;;;;;;41.50;29.43;;;4.50;92.90;;;;;;4928770;29;20214;-80
2023/02/19 07:21:13;;;;;;;44.97;29.47;;;4.80;92.30;;;;;;4916944;29;20277;-80
2023/02/19 07:23:40;;;;;;;42.37;30.93;;;5.20;91.60;;;;;;4936026;29;20556;-81
2023/02/19 07:26:14;;;;;;;44.10;30.53;;;5.70;90.80;;;;;;4925459;29;20218;-80
2023/02/19 07:28:43;;;;;;;46.33;31.33;;;6.00;89.60;;;;;;4930654;29;20232;-81
2023/02/19 07:31:11;;;;;;;50.73;33.27;;;6.30;88.10;;;;;;4928213;29;20221;-80
2023/02/19 07:33:45;;;;;;;50.53;34.07;;;6.50;86.90;;;;;;4912386;29;20519;-81
2023/02/19 07:36:15;;;;;;;46.93;31.83;;;6.60;86.60;;;;;;4948559;28;20635;-80
2023/02/19 07:38:43;;;;;;;49.17;33.80;;;6.70;86.60;;;;;;4917712;29;20211;-81
2023/02/19 07:41:11;;;;;;;46.50;34.10;;;6.90;86.60;;;;;;4918593;29;20206;-81
2023/02/19 07:43:39;;;;;;;51.33;34.50;;;7.10;86.60;;;;;;4927357;29;20286;-81
2023/02/19 07:46:12;;;;;;;47.40;31.60;;;7.20;86.50;;;;;;4935684;29;20218;-80
2023/02/19 07:48:41;;;;;;;49.83;33.13;;;7.40;86.20;;;;;;4922600;29;20218;-80
2023/02/19 07:51:17;;;;;;;47.30;32.73;;;7.50;85.80;;;;;;4945858;29;20239;-80
2023/02/19 07:53:46;;;;;;;47.40;34.60;;;7.60;85.80;;;;;;4937710;29;20199;-80
2023/02/19 07:56:13;;;;;;;50.30;34.03;;;7.60;86.40;;;;;;4918004;29;20295;-80
2023/02/19 07:58:41;;;;;;;48.47;33.47;;;7.60;87.00;;;;;;4924892;29;20199;-80
2023/02/19 08:04:16;;;;;;;49.10;32.63;;;7.70;88.40;;;;;;4898667;29;20690;-81
2023/02/19 08:06:43;;;;;;;46.40;32.20;;;7.80;89.00;;;;;;4930407;29;20650;-81
2023/02/19 08:09:11;;;;;;;47.87;33.80;;;7.90;89.60;;;;;;4933394;29;20214;-81
2023/02/19 08:14:28;;;;;;;48.07;32.27;;;8.00;90.10;;;;;;4949478;28;20209;-80
2023/02/19 08:16:55;;;;;;;49.60;32.83;;;8.20;90.30;;;;;;4946886;28;20604;-80
2023/02/19 08:19:22;;;;;;;45.20;30.67;;;8.30;90.30;;;;;;4947717;28;20209;-80
2023/02/19 08:21:50;;;;;;;44.13;30.17;;;8.40;90.00;;;;;;4928695;28;20202;-80
2023/02/19 08:24:23;;;;;;;44.30;30.70;;;8.50;90.30;;;;;;4939432;29;20338;-79
2023/02/19 08:26:51;;;;;;;46.80;30.97;;;8.60;90.30;;;;;;4955274;28;20216;-83
2023/02/19 08:29:18;;;;;;;48.27;32.87;;;8.80;90.60;;;;;;4946375;28;20223;-80
2023/02/19 08:31:45;;;;;;;50.07;32.17;;;9.00;90.80;;;;;;4935448;28;20195;-80
2023/02/19 08:34:13;;;;;;;49.13;33.80;;;9.20;90.80;;;;;;4953488;28;20216;-80
2023/02/19 08:36:40;;;;;;;44.23;31.13;;;9.50;90.80;;;;;;4951666;28;20275;-81
2023/02/19 08:39:07;;;;;;;45.83;30.50;;;9.80;90.60;;;;;;4939060;28;20228;-80
2023/02/19 08:41:34;;;;;;;43.77;29.57;;;10.00;90.40;;;;;;4927507;29;20208;-81
2023/02/19 08:44:03;;;;;;;47.20;29.23;;;10.30;90.00;;;;;;4958058;28;20218;-82
2023/02/19 08:46:30;;;;;;;45.10;30.97;;;10.40;88.50;;;;;;4960812;28;20216;-80
2023/02/19 08:49:00;;;;;;;45.57;31.70;;;10.40;87.80;;;;;;4951017;28;20232;-80
2023/02/19 08:51:27;;;;;;;45.07;32.60;;;10.50;88.00;;;;;;4951322;28;20599;-80
2023/02/19 08:53:54;;;;;;;49.20;33.10;;;10.70;88.50;;;;;;4951979;28;20227;-80
2023/02/19 08:56:21;;;;;;;47.43;32.50;;;10.80;88.10;;;;;;4954421;28;20202;-81
2023/02/19 08:58:48;;;;;;;42.17;30.93;;;11.00;87.60;;;;;;4948699;28;20296;-81
2023/02/19 09:01:19;;;;;;;48.67;32.53;;;11.20;86.90;;;;;;4957964;28;20295;-81
2023/02/19 09:03:48;;;;;;;45.97;31.03;;;11.30;86.30;;;;;;4948855;28;20209;-81
2023/02/19 09:06:18;;;;;;;45.70;32.90;;;11.40;85.90;;;;;;4948108;28;20304;-80
2023/02/19 09:08:45;;;;;;;44.80;30.63;;;11.60;85.70;;;;;;4950965;28;20291;-81
2023/02/19 09:11:12;;;;;;;48.70;33.77;;;11.70;85.20;;;;;;4953894;28;20236;-80
2023/02/19 09:13:42;;;;;;;49.17;32.43;;;11.90;84.50;;;;;;4964586;28;20650;-81
2023/02/19 09:16:10;;;;;;;48.00;33.30;;;12.10;84.60;;;;;;4953705;28;20620;-80
2023/02/19 09:18:37;;;;;;;45.23;32.77;;;12.40;83.80;;;;;;4955326;28;20222;-80
2023/02/19 09:21:05;;;;;;;43.13;31.13;;;12.60;83.70;;;;;;4957539;28;20218;-80
2023/02/19 09:23:34;;;;;;;49.67;31.77;;;12.90;83.60;;;;;;4956942;28;20270;-79
2023/02/19 09:26:05;;;;;;;43.37;29.63;;;13.20;83.00;;;;;;4940139;29;20733;-80
2023/02/19 09:28:33;;;;;;;45.67;29.73;;;13.30;82.30;;;;;;4960803;28;20675;-80
2023/02/19 09:31:05;;;;;;;47.70;31.97;;;13.50;81.80;;;;;;4955620;28;20242;-80
2023/02/19 09:33:32;;;;;;;41.87;30.70;;;13.50;81.50;;;;;;4957234;28;20249;-80
2023/02/19 09:36:00;;;;;;;45.03;30.73;;;13.60;81.40;;;;;;4956059;28;20206;-80
2023/02/19 09:38:28;;;;;;;47.50;29.97;;;13.70;81.20;;;;;;4962741;28;20558;-80
2023/02/19 09:40:57;;;;;;;44.27;32.80;;;13.70;80.90;;;;;;4959222;28;20204;-80
2023/02/19 09:43:28;;;;;;;44.77;31.30;;;13.70;80.90;;;;;;4938899;29;20217;-80
2023/02/19 09:46:28;;;;;;;43.73;29.17;;;13.80;81.10;;;;;;4951359;28;20206;-80
2023/02/19 09:49:27;;;;;;;41.77;28.80;;;13.90;81.40;;;;;;4959864;28;20226;-79
2023/02/19 09:52:04;;;;;;;41.40;27.67;;;14.00;81.50;;;;;;4954675;28;20554;-79
2023/02/19 09:54:33;;;;;;;35.73;26.73;;;14.20;81.30;;;;;;4946689;28;20524;-79
2023/02/19 09:57:01;;;;;;;39.27;27.27;;;14.40;81.00;;;;;;4952949;28;20226;-79
2023/02/19 09:59:41;;;;;;;43.43;27.47;;;14.60;80.60;;;;;;4938913;29;20549;-80
2023/02/19 10:02:23;;;;;;;38.77;26.80;;;14.70;80.20;;;;;;4936181;29;20205;-80
2023/02/19 10:04:51;;;;;;;32.57;23.37;;;14.90;79.80;;;;;;4961434;28;20236;-79
2023/02/19 10:07:22;;;;;;;31.07;21.80;;;15.00;79.60;;;;;;4942155;29;20286;-80
2023/02/19 10:10:01;;;;;;;28.70;20.70;;;15.00;79.20;;;;;;4958120;28;20249;-78
2023/02/19 10:12:31;;;;;;;36.00;23.03;;;15.10;78.90;;;;;;4952611;28;20207;-79
2023/02/19 10:15:11;;;;;;;30.27;21.37;;;15.10;78.90;;;;;;4954355;28;20201;-79
2023/02/19 10:17:38;;;;;;;26.50;21.40;;;15.10;78.80;;;;;;4953386;28;20277;-79
2023/02/19 10:20:06;;;;;;;27.13;19.93;;;15.10;78.80;;;;;;4942182;29;20220;-80
2023/02/19 10:22:36;;;;;;;22.70;17.20;;;15.10;78.80;;;;;;4957810;28;20223;-79
2023/02/19 10:25:05;;;;;;;22.90;17.17;;;15.10;78.80;;;;;;4932475;28;20211;-79
2023/02/19 10:27:32;;;;;;;24.37;17.87;;;15.10;78.80;;;;;;4935641;29;20261;-79
2023/02/19 10:30:00;;;;;;;28.77;20.23;;;15.20;78.90;;;;;;4948674;28;20210;-79
2023/02/19 10:32:28;;;;;;;24.30;19.23;;;15.20;78.90;;;;;;4945868;28;20217;-78
2023/02/19 10:35:14;;;;;;;23.13;18.10;;;15.20;78.80;;;;;;4944833;28;20216;-78
2023/02/19 10:37:47;;;;;;;25.07;17.20;;;15.30;78.80;;;;;;4942034;28;20205;-78
2023/02/19 10:40:25;;;;;;;23.63;16.60;;;15.40;78.80;;;;;;4954634;28;20405;-79
2023/02/19 10:42:58;;;;;;;20.60;15.90;;;15.40;78.60;;;;;;4936334;29;20206;-79
2023/02/19 10:45:46;;;;;;;22.57;16.63;;;15.40;77.70;;;;;;4946523;28;20278;-81
2023/02/19 10:48:44;;;;;;;24.17;17.33;;;15.50;76.80;;;;;;4957352;28;20664;-79
2023/02/19 10:51:17;;;;;;;19.80;15.07;;;15.40;77.10;;;;;;4954564;28;20225;-79
2023/02/19 10:53:49;;;;;;;15.73;12.20;;;15.40;77.80;;;;;;4931570;28;20679;-80
2023/02/19 10:56:25;;;;;;;15.60;12.63;;;15.50;78.00;;;;;;4938739;29;20292;-80
2023/02/19 10:58:54;;;;;;;18.27;11.03;;;15.60;78.00;;;;;;4936844;28;20205;-79
2023/02/19 11:01:24;;;;;;;15.83;11.30;;;15.70;77.80;;;;;;4936270;29;20220;-79
2023/02/19 11:04:16;;;;;;;11.70;9.03;;;15.80;77.20;;;;;;4943977;28;20238;-80
2023/02/19 11:06:44;;;;;;;11.73;9.77;;;15.80;74.70;;;;;;4936017;29;20298;-80
2023/02/19 11:09:27;;;;;;;14.80;11.63;;;15.80;75.10;;;;;;4948914;28;20653;-79
2023/02/19 11:11:56;;;;;;;11.20;8.43;;;15.90;75.80;;;;;;4957855;28;20210;-80
2023/02/19 11:14:24;;;;;;;11.93;9.00;;;15.90;75.10;;;;;;4952848;28;20202;-80
2023/02/19 11:16:57;;;;;;;11.87;9.77;;;15.90;74.20;;;;;;4940755;29;21196;-80
2023/02/19 11:19:36;;;;;;;16.57;10.27;;;15.90;74.40;;;;;;4945071;28;20285;-80
2023/02/19 11:22:28;;;;;;;12.63;9.17;;;15.80;74.00;;;;;;4951211;28;20201;-80
2023/02/19 11:24:56;;;;;;;13.47;8.30;;;15.80;74.80;;;;;;4956057;28;20240;-79
2023/02/19 11:27:25;;;;;;;15.00;10.97;;;15.80;75.00;;;;;;4951890;28;20210;-80
2023/02/19 11:29:52;;;;;;;13.77;9.90;;;15.80;74.80;;;;;;4948360;28;20290;-81
2023/02/19 11:32:25;;;;;;;11.50;9.27;;;15.90;75.10;;;;;;4961322;28;20687;-80
2023/02/19 11:35:21;;;;;;;13.17;10.70;;;15.90;74.30;;;;;;4946495;28;20203;-81
2023/02/19 11:37:53;;;;;;;13.43;10.97;;;16.00;73.90;;;;;;4937429;29;20226;-80
2023/02/19 11:40:38;;;;;;;13.27;11.23;;;16.00;73.60;;;;;;4944627;28;20239;-79
2023/02/19 11:43:19;;;;;;;14.87;10.50;;;15.90;73.50;;;;;;4933063;29;20212;-82
2023/02/19 11:45:46;;;;;;;16.00;8.70;;;15.90;74.10;;;;;;4950379;28;20658;-80
2023/02/19 11:48:32;;;;;;;11.10;8.50;;;15.90;74.00;;;;;;4949717;28;20224;-79
2023/02/19 11:51:21;;;;;;;11.60;9.80;;;16.00;73.60;;;;;;4950987;28;20551;-82
2023/02/19 11:54:11;;;;;;;11.87;8.63;;;16.00;73.10;;;;;;4946437;28;20212;-80
2023/02/19 11:56:41;;;;;;;9.33;6.77;;;16.00;73.20;;;;;;4945612;28;20552;-81
2023/02/19 11:59:35;;;;;;;8.17;6.03;;;16.00;73.10;;;;;;4944085;28;20218;-81
2023/02/19 12:02:36;;;;;;;5.93;4.37;;;16.00;72.60;;;;;;4951741;28;20241;-81
2023/02/19 12:05:17;;;;;;;6.10;5.40;;;15.90;72.80;;;;;;4954333;28;20220;-80
2023/02/19 12:08:21;;;;;;;11.90;7.57;;;15.90;72.50;;;;;;4947364;28;20233;-81
2023/02/19 12:11:15;;;;;;;13.03;8.57;;;15.90;72.40;;;;;;4947858;28;20235;-81
2023/02/19 12:14:03;;;;;;;11.80;8.93;;;15.90;73.00;;;;;;4942955;28;20207;-80
2023/02/19 12:17:08;;;;;;;11.40;8.43;;;15.90;73.80;;;;;;4946888;28;20289;-80
2023/02/19 12:20:03;;;;;;;14.00;9.07;;;15.90;73.00;;;;;;4947780;28;20222;-81
2023/02/19 12:22:56;;;;;;;13.03;9.30;;;15.90;73.50;;;;;;4944582;28;20240;-80
2023/02/19 12:25:38;;;;;;;11.43;9.17;;;15.90;73.60;;;;;;4935362;29;20207;-81
2023/02/19 12:28:14;;;;;;;15.10;9.63;;;15.90;74.00;;;;;;4952027;28;20208;-79
2023/02/19 12:31:08;;;;;;;10.90;8.80;;;15.90;73.30;;;;;;4948793;28;20198;-80
2023/02/19 12:33:44;;;;;;;14.27;10.47;;;15.90;73.50;;;;;;4946532;28;20210;-80
2023/02/19 12:36:33;;;;;;;10.00;8.57;;;15.90;73.90;;;;;;4947551;28;20216;-82
2023/02/19 12:39:11;;;;;;;11.70;8.53;;;16.00;73.20;;;;;;4956164;28;20239;-80
2023/02/19 12:41:41;;;;;;;13.83;9.40;;;16.00;73.30;;;;;;4939496;29;20210;-81
2023/02/19 12:44:20;;;;;;;10.93;7.50;;;16.10;73.50;;;;;;4956610;28;20202;-79
2023/02/19 12:46:52;;;;;;;11.97;8.23;;;16.10;72.30;;;;;;4958233;28;20716;-80
2023/02/19 12:49:36;;;;;;;9.83;8.77;;;16.10;72.10;;;;;;4956582;28;20676;-80
2023/02/19 12:52:35;;;;;;;11.93;7.60;;;16.20;72.70;;;;;;4951083;28;20222;-80
2023/02/19 12:55:27;;;;;;;11.60;7.90;;;16.30;72.50;;;;;;4934179;29;20202;-82
2023/02/19 12:57:57;;;;;;;9.00;7.20;;;16.40;71.70;;;;;;4943494;29;20207;-81
2023/02/19 13:00:55;;;;;;;9.63;7.70;;;16.40;71.40;;;;;;4944864;29;20227;-81
2023/02/19 13:03:27;;;;;;;11.30;8.50;;;16.40;71.50;;;;;;4941225;29;20282;-81
2023/02/19 13:06:03;;;;;;;12.83;8.87;;;16.40;70.90;;;;;;4954718;28;20267;-80
2023/02/19 13:08:42;;;;;;;10.37;8.73;;;16.40;70.90;;;;;;4954391;28;20298;-80
2023/02/19 13:11:42;;;;;;;14.30;8.80;;;16.30;70.70;;;;;;4947144;29;20319;-80
2023/02/19 13:14:25;;;;;;;12.33;9.40;;;16.20;71.20;;;;;;4950743;28;20211;-80
2023/02/19 13:17:00;;;;;;;11.97;9.70;;;16.20;71.50;;;;;;4954414;28;20215;-80
2023/02/19 13:19:29;;;;;;;11.63;8.40;;;16.20;72.30;;;;;;4961046;28;20215;-81
2023/02/19 13:24:56;;;;;;;10.23;8.67;;;16.20;71.70;;;;;;4954860;28;20211;-80
2023/02/19 13:27:42;;;;;;;10.27;8.70;;;16.10;71.20;;;;;;4934224;29;20236;-80
2023/02/19 13:30:24;;;;;;;10.87;8.80;;;16.10;71.30;;;;;;4953457;28;20309;-80
2023/02/19 13:32:52;;;;;;;11.20;9.80;;;16.00;71.70;;;;;;4948587;28;20222;-81
2023/02/19 13:36:04;;;;;;;11.43;9.60;;;16.00;71.60;;;;;;4937632;29;20198;-79
2023/02/19 13:38:40;;;;;;;12.20;10.00;;;16.00;71.70;;;;;;4925323;29;20214;-80
2023/02/19 13:41:18;;;;;;;12.43;9.17;;;15.90;71.70;;;;;;4953799;28;20241;-80